createdAt,value
2022-10-09T00:01:07.773Z,99252.25
2022-10-09T00:03:36.212Z,99257.16
2022-10-09T00:06:03.859Z,99258.00
2022-10-09T00:08:31.018Z,99255.00
2022-10-09T00:10:57.838Z,99253.91
2022-10-09T00:13:24.705Z,99253.06
2022-10-09T00:15:51.633Z,99248.44
2022-10-09T00:18:19.123Z,99250.06
2022-10-09T00:20:47.162Z,99255.81
2022-10-09T00:23:17.349Z,99261.53
2022-10-09T00:25:58.034Z,99260.72
2022-10-09T00:28:26.722Z,99257.72
2022-10-09T00:30:54.615Z,99260.47
2022-10-09T00:33:21.843Z,99264.00
2022-10-09T00:35:49.227Z,99262.09
2022-10-09T00:38:16.142Z,99270.31
2022-10-09T00:40:43.399Z,99268.38
2022-10-09T00:43:19.257Z,99276.31
2022-10-09T00:45:55.851Z,99271.94
2022-10-09T00:48:23.625Z,99273.06
2022-10-09T00:50:54.588Z,99274.72
2022-10-09T00:53:24.100Z,99268.16
2022-10-09T00:55:51.319Z,99271.72
2022-10-09T00:58:19.395Z,99269.25
2022-10-09T01:00:46.207Z,99278.31
2022-10-09T01:03:13.054Z,99286.25
2022-10-09T01:05:39.752Z,99292.53
2022-10-09T01:08:24.766Z,99295.84
2022-10-09T01:11:06.757Z,99300.78
2022-10-09T01:13:43.021Z,99306.81
2022-10-09T01:16:24.032Z,99313.09
2022-10-09T01:19:06.366Z,99313.66
2022-10-09T01:21:43.762Z,99308.19
2022-10-09T01:24:19.374Z,99310.66
2022-10-09T01:27:04.735Z,99299.72
2022-10-09T01:29:40.932Z,99303.00
2022-10-09T01:32:11.236Z,99292.06
2022-10-09T01:34:39.996Z,99294.53
2022-10-09T01:37:09.089Z,99294.53
2022-10-09T01:39:37.311Z,99289.88
2022-10-09T01:42:04.827Z,99295.91
2022-10-09T01:44:33.183Z,99298.66
2022-10-09T01:47:00.951Z,99293.19
2022-10-09T01:49:49.694Z,99299.47
2022-10-09T01:52:27.812Z,99289.34
2022-10-09T01:55:25.301Z,99295.66
2022-10-09T01:57:57.846Z,99299.19
2022-10-09T02:00:25.595Z,99303.59
2022-10-09T02:02:54.978Z,99298.94
2022-10-09T02:05:26.282Z,99296.47
2022-10-09T02:07:55.259Z,99295.66
2022-10-09T02:10:23.473Z,99290.44
2022-10-09T02:12:55.142Z,99298.09
2022-10-09T02:15:27.895Z,99292.06
2022-10-09T02:18:02.813Z,99292.59
2022-10-09T02:20:34.026Z,99301.06
2022-10-09T02:23:04.690Z,99298.59
2022-10-09T02:25:31.707Z,99303.25
2022-10-09T02:27:58.570Z,99300.78
2022-10-09T02:30:30.431Z,99314.72
2022-10-09T02:32:57.563Z,99310.31
2022-10-09T02:35:24.316Z,99314.97
2022-10-09T02:37:51.060Z,99320.72
2022-10-09T02:40:17.762Z,99313.84
2022-10-09T02:42:44.517Z,99311.34
2022-10-09T02:45:11.334Z,99318.47
2022-10-09T02:47:38.040Z,99318.72
2022-10-09T02:50:05.247Z,99320.16
2022-10-09T02:52:31.966Z,99321.19
2022-10-09T02:54:58.765Z,99322.06
2022-10-09T02:57:25.467Z,99318.47
2022-10-09T02:59:52.183Z,99316.81
2022-10-09T03:02:19.069Z,99326.66
2022-10-09T03:04:45.966Z,99323.13
2022-10-09T03:07:12.695Z,99328.84
2022-10-09T03:09:39.408Z,99319.81
2022-10-09T03:12:06.221Z,99326.38
2022-10-09T03:14:32.983Z,99331.03
2022-10-09T03:16:59.740Z,99331.03
2022-10-09T03:19:26.543Z,99344.41
2022-10-09T03:21:53.289Z,99343.03
2022-10-09T03:24:20.115Z,99346.84
2022-10-09T03:26:46.864Z,99350.94
2022-10-09T03:29:13.549Z,99352.84
2022-10-09T03:31:51.857Z,99355.31
2022-10-09T03:34:19.411Z,99356.94
2022-10-09T03:36:46.371Z,99362.41
2022-10-09T03:39:13.051Z,99364.56
2022-10-09T03:41:39.812Z,99370.31
2022-10-09T03:44:06.678Z,99368.37
2022-10-09T03:46:33.509Z,99374.94
2022-10-09T03:49:00.268Z,99372.22
2022-10-09T03:51:27.622Z,99373.28
2022-10-09T03:53:54.326Z,99374.38
2022-10-09T03:56:21.080Z,99369.75
2022-10-09T03:58:47.808Z,99370.81
2022-10-09T04:01:14.604Z,99371.09
2022-10-09T04:03:41.415Z,99378.19
2022-10-09T04:06:08.120Z,99374.09
2022-10-09T04:08:35.421Z,99383.37
2022-10-09T04:11:02.235Z,99378.13
2022-10-09T04:13:29.280Z,99371.28
2022-10-09T04:15:56.603Z,99374.28
2022-10-09T04:18:23.771Z,99365.25
2022-10-09T04:20:56.021Z,99372.06
2022-10-09T04:23:25.348Z,99373.41
2022-10-09T04:25:58.324Z,99368.78
2022-10-09T04:28:29.539Z,99381.03
2022-10-09T04:30:59.689Z,99379.12
2022-10-09T04:33:27.044Z,99384.59
2022-10-09T04:35:55.388Z,99387.28
2022-10-09T04:38:23.143Z,99392.44
2022-10-09T04:41:01.070Z,99397.09
2022-10-09T04:43:28.305Z,99400.31
2022-10-09T04:45:55.485Z,99410.66
2022-10-09T04:48:22.862Z,99410.91
2022-10-09T04:50:49.623Z,99410.34
2022-10-09T04:53:16.722Z,99413.03
2022-10-09T04:55:44.564Z,99415.22
2022-10-09T04:58:13.077Z,99422.84
2022-10-09T05:00:44.973Z,99420.38
2022-10-09T05:03:12.416Z,99431.22
2022-10-09T05:05:39.216Z,99444.50
2022-10-09T05:08:06.501Z,99445.03
2022-10-09T05:10:33.392Z,99446.31
2022-10-09T05:13:00.225Z,99438.94
2022-10-09T05:15:27.356Z,99448.72
2022-10-09T05:17:54.246Z,99446.25
2022-10-09T05:20:21.153Z,99444.03
2022-10-09T05:22:48.385Z,99440.94
2022-10-09T05:25:15.609Z,99447.75
2022-10-09T05:27:42.424Z,99446.84
2022-10-09T05:30:09.938Z,99451.19
2022-10-09T05:32:36.791Z,99452.75
2022-10-09T05:35:04.461Z,99463.38
2022-10-09T05:37:31.415Z,99464.69
2022-10-09T05:39:58.184Z,99468.97
2022-10-09T05:42:24.983Z,99465.34
2022-10-09T05:44:51.740Z,99469.97
2022-10-09T05:47:19.888Z,99471.31
2022-10-09T05:49:46.856Z,99473.72
2022-10-09T05:52:13.707Z,99479.44
2022-10-09T05:54:42.037Z,99480.19
2022-10-09T05:57:09.748Z,99484.81
2022-10-09T05:59:36.497Z,99486.72
2022-10-09T06:02:03.850Z,99497.63
2022-10-09T06:04:30.712Z,99498.09
2022-10-09T06:06:57.552Z,99503.56
2022-10-09T06:09:25.702Z,99510.09
2022-10-09T06:11:54.425Z,99510.91
2022-10-09T06:14:22.355Z,99503.31
2022-10-09T06:16:49.897Z,99511.72
2022-10-09T06:19:19.323Z,99517.78
2022-10-09T06:21:47.258Z,99517.19
2022-10-09T06:24:28.695Z,99508.69
2022-10-09T06:26:59.339Z,99513.06
2022-10-09T06:29:26.570Z,99519.91
2022-10-09T06:31:53.884Z,99524.78
2022-10-09T06:34:20.760Z,99527.53
2022-10-09T06:36:47.786Z,99522.88
2022-10-09T06:39:14.604Z,99521.81
2022-10-09T06:41:41.342Z,99529.16
2022-10-09T06:44:16.285Z,99533.31
2022-10-09T06:46:45.291Z,99541.00
2022-10-09T06:49:12.470Z,99544.81
2022-10-09T06:51:39.490Z,99545.91
2022-10-09T06:54:12.057Z,99546.22
2022-10-09T06:56:39.043Z,99548.94
2022-10-09T06:59:07.402Z,99545.47
2022-10-09T07:01:34.694Z,99546.28
2022-10-09T07:04:07.055Z,99552.81
2022-10-09T07:06:38.396Z,99553.91
2022-10-09T07:09:08.462Z,99556.12
2022-10-09T07:11:38.479Z,99563.56
2022-10-09T07:14:07.984Z,99562.25
2022-10-09T07:16:37.165Z,99562.00
2022-10-09T07:19:07.702Z,99569.09
2022-10-09T07:21:35.984Z,99574.06
2022-10-09T07:24:04.071Z,99577.59
2022-10-09T07:26:33.164Z,99577.97
2022-10-09T07:29:00.913Z,99587.56
2022-10-09T07:31:27.837Z,99580.78
2022-10-09T07:33:56.922Z,99581.59
2022-10-09T07:36:24.645Z,99582.16
2022-10-09T07:38:53.213Z,99582.75
2022-10-09T07:41:21.427Z,99580.59
2022-10-09T07:43:48.380Z,99584.97
2022-10-09T07:46:18.073Z,99578.44
2022-10-09T07:48:45.925Z,99583.38
2022-10-09T07:51:24.349Z,99584.22
2022-10-09T07:53:51.687Z,99584.22
2022-10-09T07:56:29.088Z,99590.25
2022-10-09T07:58:58.055Z,99598.22
2022-10-09T08:01:26.165Z,99594.41
2022-10-09T08:03:52.962Z,99601.28
2022-10-09T08:06:20.217Z,99602.09
2022-10-09T08:08:54.940Z,99613.03
2022-10-09T08:11:23.172Z,99609.78
2022-10-09T08:13:51.240Z,99612.25
2022-10-09T08:16:19.488Z,99603.56
2022-10-09T08:18:46.923Z,99606.03
2022-10-09T08:21:19.145Z,99608.53
2022-10-09T08:23:46.634Z,99615.38
2022-10-09T08:26:18.756Z,99611.56
2022-10-09T08:28:54.498Z,99612.97
2022-10-09T08:31:22.326Z,99608.97
2022-10-09T08:33:53.578Z,99610.94
2022-10-09T08:36:21.591Z,99602.50
2022-10-09T08:38:49.198Z,99610.19
2022-10-09T08:41:29.484Z,99610.25
2022-10-09T08:44:10.442Z,99614.38
2022-10-09T08:47:14.101Z,99615.53
2022-10-09T08:49:49.320Z,99612.91
2022-10-09T08:52:49.087Z,99611.31
2022-10-09T08:55:24.179Z,99613.28
2022-10-09T08:57:54.012Z,99612.25
2022-10-09T09:00:29.348Z,99622.66
2022-10-09T09:03:29.198Z,99619.19
2022-10-09T09:06:17.875Z,99616.53
2022-10-09T09:08:55.314Z,99618.50
2022-10-09T09:11:40.937Z,99624.84
2022-10-09T09:14:29.418Z,99619.44
2022-10-09T09:17:12.533Z,99633.19
2022-10-09T09:20:04.531Z,99631.31
2022-10-09T09:22:32.684Z,99628.66
2022-10-09T09:25:01.105Z,99622.41
2022-10-09T09:27:34.788Z,99626.28
2022-10-09T09:30:13.423Z,99632.09
2022-10-09T09:32:43.637Z,99634.03
2022-10-09T09:35:27.216Z,99630.53
2022-10-09T09:37:54.249Z,99634.41
2022-10-09T09:40:38.468Z,99629.00
2022-10-09T09:43:16.852Z,99635.63
2022-10-09T09:45:45.324Z,99632.94
2022-10-09T09:48:36.569Z,99633.25
2022-10-09T09:51:29.368Z,99629.16
2022-10-09T09:54:18.566Z,99633.03
2022-10-09T09:59:33.141Z,99635.31
2022-10-09T10:02:17.980Z,99633.72
2022-10-09T10:04:52.606Z,99636.50
2022-10-09T10:07:37.129Z,99630.50
2022-10-09T10:10:09.710Z,99628.63
2022-10-09T10:13:06.924Z,99628.91
2022-10-09T10:15:34.943Z,99624.84
2022-10-09T10:18:23.340Z,99622.16
2022-10-09T10:20:54.458Z,99619.44
2022-10-09T10:23:36.453Z,99621.66
2022-10-09T10:26:41.525Z,99622.78
2022-10-09T10:29:14.272Z,99619.50
2022-10-09T10:32:16.175Z,99617.09
2022-10-09T10:34:53.828Z,99613.81
2022-10-09T10:37:29.701Z,99609.47
2022-10-09T10:40:15.086Z,99622.63
2022-10-09T10:42:47.684Z,99622.94
2022-10-09T10:45:14.402Z,99615.28
2022-10-09T10:47:47.343Z,99613.34
2022-10-09T10:50:16.354Z,99612.81
2022-10-09T10:52:49.458Z,99618.63
2022-10-09T10:56:04.935Z,99617.25
2022-10-09T10:58:59.198Z,99619.75
2022-10-09T11:02:10.264Z,99621.13
2022-10-09T11:04:54.030Z,99622.50
2022-10-09T11:07:42.876Z,99614.88
2022-10-09T11:10:34.473Z,99609.12
2022-10-09T11:13:12.443Z,99615.97
2022-10-09T11:16:00.906Z,99609.16
2022-10-09T11:18:52.242Z,99612.16
2022-10-09T11:22:00.675Z,99595.22
2022-10-09T11:24:48.136Z,99604.81
2022-10-09T11:27:20.812Z,99601.00
2022-10-09T11:29:57.302Z,99590.56
2022-10-09T11:32:32.591Z,99583.47
2022-10-09T11:35:12.948Z,99586.75
2022-10-09T11:37:43.576Z,99581.81
2022-10-09T11:40:20.618Z,99588.69
2022-10-09T11:43:21.378Z,99581.03
2022-10-09T11:45:55.202Z,99571.44
2022-10-09T11:48:42.674Z,99575.59
2022-10-09T11:51:23.785Z,99564.06
2022-10-09T11:53:52.510Z,99562.69
2022-10-09T11:56:27.730Z,99557.50
2022-10-09T11:59:06.419Z,99556.97
2022-10-09T12:01:39.808Z,99552.84
2022-10-09T12:04:27.805Z,99544.63
2022-10-09T12:07:09.418Z,99535.84
2022-10-09T12:09:42.649Z,99536.37
2022-10-09T12:12:23.029Z,99529.81
2022-10-09T12:14:52.043Z,99524.91
2022-10-09T12:17:21.895Z,99527.09
2022-10-09T12:19:57.377Z,99526.56
2022-10-09T12:22:32.044Z,99526.28
2022-10-09T12:25:06.659Z,99523.53
2022-10-09T12:27:43.421Z,99522.16
2022-10-09T12:30:14.240Z,99521.87
2022-10-09T12:33:25.965Z,99519.69
2022-10-09T12:36:03.854Z,99513.94
2022-10-09T12:38:32.014Z,99509.00
2022-10-09T12:41:02.876Z,99507.91
2022-10-09T12:43:32.513Z,99508.72
2022-10-09T12:46:00.595Z,99504.06
2022-10-09T12:48:29.108Z,99506.53
2022-10-09T12:50:56.204Z,99503.50
2022-10-09T12:53:27.994Z,99504.91
2022-10-09T12:55:59.298Z,99497.50
2022-10-09T12:58:31.247Z,99499.13
2022-10-09T13:01:01.404Z,99496.41
2022-10-09T13:03:57.675Z,99496.41
2022-10-09T13:06:38.074Z,99497.22
2022-10-09T13:09:07.951Z,99493.66
2022-10-09T13:11:40.955Z,99482.66
2022-10-09T13:14:24.535Z,99481.56
2022-10-09T13:16:51.810Z,99482.66
2022-10-09T13:19:27.609Z,99484.31
2022-10-09T13:22:06.421Z,99477.19
2022-10-09T13:24:35.793Z,99486.25
2022-10-09T13:27:04.139Z,99476.38
2022-10-09T13:29:31.629Z,99486.25
2022-10-09T13:31:58.628Z,99482.66
2022-10-09T13:34:29.111Z,99485.41
2022-10-09T13:36:56.650Z,99475.25
2022-10-09T13:39:23.393Z,99472.53
2022-10-09T13:41:55.487Z,99479.94
2022-10-09T13:44:22.291Z,99469.78
2022-10-09T13:46:49.188Z,99471.69
2022-10-09T13:49:16.071Z,99468.13
2022-10-09T13:51:42.894Z,99470.88
2022-10-09T13:54:12.285Z,99463.47
2022-10-09T13:56:39.029Z,99465.38
2022-10-09T13:59:05.875Z,99468.13
2022-10-09T14:01:32.772Z,99454.69
2022-10-09T14:03:59.623Z,99451.94
2022-10-09T14:06:26.379Z,99451.94
2022-10-09T14:08:53.317Z,99454.69
2022-10-09T14:11:20.216Z,99455.50
2022-10-09T14:13:46.926Z,99444.53
2022-10-09T14:16:13.823Z,99447.28
2022-10-09T14:18:40.578Z,99440.97
2022-10-09T14:21:15.046Z,99440.97
2022-10-09T14:23:42.634Z,99441.78
2022-10-09T14:26:10.073Z,99437.41
2022-10-09T14:28:37.150Z,99445.63
2022-10-09T14:31:07.687Z,99437.41
2022-10-09T14:33:34.574Z,99437.41
2022-10-09T14:36:20.215Z,99433.81
2022-10-09T14:38:48.546Z,99429.41
2022-10-09T14:41:18.047Z,99425.84
2022-10-09T14:43:45.656Z,99427.78
2022-10-09T14:46:17.841Z,99422.56
2022-10-09T14:48:45.758Z,99422.84
2022-10-09T14:51:18.607Z,99414.59
2022-10-09T14:53:46.696Z,99415.69
2022-10-09T14:56:16.567Z,99415.69
2022-10-09T14:58:43.820Z,99420.66
2022-10-09T15:01:15.296Z,99414.63
2022-10-09T15:03:42.625Z,99414.87
2022-10-09T15:06:11.156Z,99418.19
2022-10-09T15:08:40.332Z,99419.56
2022-10-09T15:11:07.692Z,99409.97
2022-10-09T15:13:35.816Z,99405.84
2022-10-09T15:16:08.258Z,99406.09
2022-10-09T15:18:35.728Z,99401.16
2022-10-09T15:21:02.688Z,99403.38
2022-10-09T15:23:30.140Z,99401.16
2022-10-09T15:25:59.241Z,99400.63
2022-10-09T15:28:26.337Z,99402.00
2022-10-09T15:31:00.493Z,99409.97
2022-10-09T15:33:27.466Z,99405.84
2022-10-09T15:35:54.355Z,99411.88
2022-10-09T15:38:23.160Z,99413.50
2022-10-09T15:40:51.843Z,99408.56
2022-10-09T15:43:21.052Z,99411.03
2022-10-09T15:45:48.734Z,99409.66
2022-10-09T15:48:21.440Z,99413.22
2022-10-09T15:50:51.572Z,99409.66
2022-10-09T15:53:20.712Z,99409.94
2022-10-09T15:55:49.139Z,99393.72
2022-10-09T15:58:17.009Z,99398.09
2022-10-09T16:00:49.712Z,99403.03
2022-10-09T16:03:18.081Z,99403.00
2022-10-09T16:05:48.838Z,99404.91
2022-10-09T16:08:17.626Z,99398.28
2022-10-09T16:10:49.424Z,99403.75
2022-10-09T16:13:16.810Z,99409.22
2022-10-09T16:15:47.828Z,99408.13
2022-10-09T16:18:16.686Z,99412.19
2022-10-09T16:20:44.001Z,99419.56
2022-10-09T16:23:11.613Z,99416.81
2022-10-09T16:25:39.665Z,99416.50
2022-10-09T16:28:09.428Z,99417.84
2022-10-09T16:30:41.318Z,99423.81
2022-10-09T16:33:12.438Z,99421.87
2022-10-09T16:35:39.709Z,99430.63
2022-10-09T16:38:06.499Z,99431.66
2022-10-09T16:41:00.449Z,99428.87
2022-10-09T16:43:20.488Z,99429.37
2022-10-09T16:45:47.412Z,99440.31
2022-10-09T16:48:14.173Z,99442.38
2022-10-09T16:50:42.460Z,99439.31
2022-10-09T16:53:09.810Z,99436.00
2022-10-09T16:55:36.722Z,99444.41
2022-10-09T16:58:03.559Z,99441.06
2022-10-09T17:00:30.636Z,99446.22
2022-10-09T17:02:57.444Z,99447.28
2022-10-09T17:05:25.616Z,99447.22
2022-10-09T17:07:52.899Z,99447.16
2022-10-09T17:10:20.029Z,99448.22
2022-10-09T17:12:46.790Z,99455.53
2022-10-09T17:15:13.687Z,99451.09
2022-10-09T17:17:41.020Z,99453.22
2022-10-09T17:20:08.246Z,99452.59
2022-10-09T17:22:35.322Z,99450.94
2022-10-09T17:25:02.534Z,99451.47
2022-10-09T17:27:29.338Z,99453.88
2022-10-09T17:29:56.135Z,99454.88
2022-10-09T17:32:23.135Z,99456.75
2022-10-09T17:34:50.952Z,99455.03
2022-10-09T17:37:17.801Z,99455.81
2022-10-09T17:39:48.542Z,99454.88
2022-10-09T17:42:18.097Z,99455.62
2022-10-09T17:44:45.197Z,99448.22
2022-10-09T17:47:11.979Z,99442.13
2022-10-09T17:49:38.799Z,99448.56
2022-10-09T17:52:05.626Z,99450.16
2022-10-09T17:54:32.426Z,99455.56
2022-10-09T17:57:00.708Z,99449.53
2022-10-09T17:59:27.987Z,99454.09
2022-10-09T18:01:54.868Z,99447.97
2022-10-09T18:04:22.588Z,99447.41
2022-10-09T18:06:49.910Z,99456.03
2022-10-09T18:09:17.209Z,99450.25
2022-10-09T18:11:44.386Z,99447.44
2022-10-09T18:14:12.294Z,99446.88
2022-10-09T18:16:40.828Z,99445.44
2022-10-09T18:19:12.766Z,99451.09
2022-10-09T18:21:42.969Z,99443.91
2022-10-09T18:24:10.831Z,99445.25
2022-10-09T18:26:38.074Z,99447.63
2022-10-09T18:29:05.607Z,99442.34
2022-10-09T18:31:32.900Z,99443.09
2022-10-09T18:34:00.782Z,99446.56
2022-10-09T18:36:31.858Z,99439.38
2022-10-09T18:39:03.079Z,99441.53
2022-10-09T18:41:30.618Z,99445.78
2022-10-09T18:44:00.626Z,99441.31
2022-10-09T18:46:42.066Z,99446.69
2022-10-09T18:49:12.676Z,99443.94
2022-10-09T18:51:42.462Z,99444.44
2022-10-09T18:54:15.716Z,99445.78
2022-10-09T18:56:46.679Z,99442.34
2022-10-09T18:59:17.206Z,99438.47
2022-10-09T19:01:44.715Z,99443.34
2022-10-09T19:04:13.510Z,99444.56
2022-10-09T19:06:40.789Z,99444.50
2022-10-09T19:09:07.989Z,99442.09
2022-10-09T19:11:35.311Z,99439.50
2022-10-09T19:14:02.541Z,99446.75
2022-10-09T19:16:32.103Z,99448.06
2022-10-09T19:18:59.758Z,99446.56
2022-10-09T19:21:26.790Z,99444.59
2022-10-09T19:23:54.441Z,99452.16
2022-10-09T19:26:22.410Z,99449.91
2022-10-09T19:28:49.160Z,99448.75
2022-10-09T19:31:15.963Z,99436.94
2022-10-09T19:33:43.223Z,99435.78
2022-10-09T19:36:12.893Z,99434.94
2022-10-09T19:38:40.300Z,99435.44
2022-10-09T19:41:12.878Z,99435.09
2022-10-09T19:43:40.146Z,99432.00
2022-10-09T19:46:10.310Z,99437.09
2022-10-09T19:48:38.053Z,99439.13
2022-10-09T19:51:16.742Z,99432.03
2022-10-09T19:53:43.972Z,99432.53
2022-10-09T19:56:13.458Z,99432.62
2022-10-09T19:58:42.335Z,99435.25
2022-10-09T20:01:14.323Z,99431.47
2022-10-09T20:03:42.062Z,99429.81
2022-10-09T20:06:10.386Z,99426.75
2022-10-09T20:08:38.630Z,99428.87
2022-10-09T20:11:06.510Z,99435.88
2022-10-09T20:13:35.475Z,99429.25
2022-10-09T20:16:04.645Z,99425.97
2022-10-09T20:18:31.801Z,99431.84
2022-10-09T20:20:58.911Z,99439.88
2022-10-09T20:23:26.505Z,99435.72
2022-10-09T20:26:03.865Z,99431.13
2022-10-09T20:28:35.863Z,99432.78
2022-10-09T20:31:07.959Z,99432.78
2022-10-09T20:33:36.167Z,99429.72
2022-10-09T20:36:04.747Z,99441.28
2022-10-09T20:38:31.661Z,99438.31
2022-10-09T20:41:03.952Z,99436.56
2022-10-09T20:43:30.707Z,99435.38
2022-10-09T20:45:57.478Z,99441.28
2022-10-09T20:48:24.223Z,99434.56
2022-10-09T20:50:50.940Z,99433.12
2022-10-09T20:53:17.642Z,99439.63
2022-10-09T20:55:44.406Z,99435.97
2022-10-09T20:58:11.246Z,99440.59
2022-10-09T21:00:41.981Z,99442.47
2022-10-09T21:03:12.328Z,99444.69
2022-10-09T21:05:43.380Z,99444.09
2022-10-09T21:08:10.657Z,99445.16
2022-10-09T21:10:48.812Z,99441.75
2022-10-09T21:13:16.245Z,99433.81
2022-10-09T21:15:44.804Z,99435.47
2022-10-09T21:18:12.046Z,99445.16
2022-10-09T21:20:40.406Z,99439.09
2022-10-09T21:23:07.660Z,99435.56
2022-10-09T21:25:34.656Z,99428.13
2022-10-09T21:28:01.486Z,99436.63
2022-10-09T21:30:28.922Z,99429.28
2022-10-09T21:32:56.491Z,99438.72
2022-10-09T21:35:23.819Z,99436.72
2022-10-09T21:37:50.831Z,99436.25
2022-10-09T21:40:18.065Z,99424.44
2022-10-09T21:42:44.787Z,99435.50
2022-10-09T21:45:13.013Z,99428.28
2022-10-09T21:47:39.767Z,99423.09
2022-10-09T21:50:07.281Z,99422.75
2022-10-09T21:52:34.054Z,99423.34
2022-10-09T21:55:00.790Z,99427.34
2022-10-09T21:57:27.514Z,99428.87
2022-10-09T21:59:54.257Z,99428.87
2022-10-09T22:02:20.947Z,99420.72
2022-10-09T22:04:47.876Z,99416.81
2022-10-09T22:07:14.592Z,99424.56
2022-10-09T22:09:41.339Z,99429.63
2022-10-09T22:12:08.075Z,99423.84
2022-10-09T22:14:34.801Z,99425.84
2022-10-09T22:17:01.603Z,99425.59
2022-10-09T22:19:28.298Z,99423.94
2022-10-09T22:21:55.044Z,99431.50
2022-10-09T22:24:25.861Z,99425.84
2022-10-09T22:26:56.980Z,99426.28
2022-10-09T22:29:25.125Z,99421.78
2022-10-09T22:31:51.932Z,99427.81
2022-10-09T22:34:19.138Z,99430.97
2022-10-09T22:36:46.630Z,99422.81
2022-10-09T22:39:13.399Z,99429.53
2022-10-09T22:41:40.532Z,99430.00
2022-10-09T22:44:08.760Z,99431.28
2022-10-09T22:46:38.871Z,99429.03
2022-10-09T22:49:07.654Z,99425.94
2022-10-09T22:51:34.831Z,99422.41
2022-10-09T22:54:01.884Z,99423.00
2022-10-09T22:56:32.710Z,99421.81
2022-10-09T22:58:59.539Z,99434.53
2022-10-09T23:01:31.626Z,99426.66
2022-10-09T23:04:01.021Z,99426.06
2022-10-09T23:06:27.919Z,99426.28
2022-10-09T23:08:54.682Z,99416.75
2022-10-09T23:11:22.962Z,99415.31
2022-10-09T23:13:59.561Z,99409.88
2022-10-09T23:16:28.343Z,99418.25
2022-10-09T23:18:57.807Z,99417.41
2022-10-09T23:21:25.363Z,99416.44
2022-10-09T23:23:52.872Z,99411.03
2022-10-09T23:26:24.685Z,99404.78
2022-10-09T23:28:54.371Z,99411.91
2022-10-09T23:31:21.890Z,99411.09
2022-10-09T23:33:48.917Z,99415.69
2022-10-09T23:36:18.968Z,99416.38
2022-10-09T23:38:46.142Z,99410.56
2022-10-09T23:41:15.754Z,99407.03
2022-10-09T23:43:44.185Z,99404.78
2022-10-09T23:46:14.003Z,99403.34
2022-10-09T23:48:40.952Z,99408.53
2022-10-09T23:51:08.461Z,99405.00
2022-10-09T23:53:35.268Z,99400.50
2022-10-09T23:56:05.851Z,99407.78
2022-10-09T23:58:32.608Z,99410.94
